createdAt,value
2019-03-13T15:38:13.890Z,3.25
2019-03-13T15:40:43.649Z,2.05
2019-03-13T15:43:13.298Z,1.92
2019-03-13T15:45:42.936Z,1.60
2019-03-13T15:48:13.297Z,2.08
2019-03-13T15:50:43.059Z,1.92
2019-03-13T15:53:12.702Z,2.35
2019-03-13T15:55:42.343Z,2.35
2019-03-13T15:58:12.101Z,2.40
2019-03-13T16:00:41.745Z,1.98
2019-03-13T16:03:11.508Z,2.15
2019-03-13T16:05:41.275Z,1.70
2019-03-13T16:08:10.919Z,1.70
2019-03-13T16:10:40.553Z,1.60
2019-03-13T16:13:10.201Z,1.70
2019-03-13T16:15:41.270Z,1.85
2019-03-13T16:18:10.916Z,2.02
2019-03-13T16:20:40.556Z,1.32
2019-03-13T16:23:10.206Z,1.65
2019-03-13T16:25:39.846Z,1.20
2019-03-13T16:28:09.602Z,0.93
2019-03-13T16:30:38.883Z,1.50
2019-03-13T16:33:08.644Z,1.27
2019-03-13T16:35:38.284Z,1.95
2019-03-13T16:38:08.169Z,1.70
2019-03-13T16:40:38.055Z,1.20
2019-03-13T16:43:07.693Z,1.22
2019-03-13T16:45:37.335Z,1.62
2019-03-13T16:48:06.977Z,1.57
2019-03-13T16:50:38.667Z,1.42
2019-03-13T16:53:08.302Z,1.90
2019-03-13T16:55:37.945Z,1.95
2019-03-13T16:58:07.589Z,1.75
2019-03-13T17:00:37.343Z,1.60
2019-03-13T17:03:07.103Z,1.95
2019-03-13T17:05:37.000Z,2.27
2019-03-13T17:08:06.748Z,2.55
2019-03-13T17:10:36.510Z,2.62
2019-03-13T17:13:06.277Z,2.22
2019-03-13T17:15:35.917Z,2.55
2019-03-13T17:18:05.676Z,3.10
2019-03-13T17:20:41.797Z,2.80
2019-03-13T17:23:11.580Z,2.55
2019-03-13T17:25:41.198Z,3.27
2019-03-13T17:28:10.962Z,2.77
2019-03-13T17:30:40.609Z,3.45
2019-03-13T17:33:10.272Z,2.77
2019-03-13T17:35:39.880Z,3.50
2019-03-13T17:38:09.531Z,3.30
2019-03-13T17:40:39.415Z,3.27
2019-03-13T17:43:09.047Z,3.33
2019-03-13T17:45:38.817Z,2.83
2019-03-13T17:48:08.575Z,2.98
2019-03-13T17:50:38.340Z,3.80
2019-03-13T17:53:08.106Z,3.12
2019-03-13T17:55:37.741Z,3.22
2019-03-13T17:58:07.381Z,3.90
2019-03-13T18:00:39.063Z,3.50
2019-03-13T18:03:08.702Z,2.42
2019-03-13T18:05:38.464Z,2.80
2019-03-13T18:08:08.224Z,3.20
2019-03-13T18:10:37.875Z,2.83
2019-03-13T18:13:07.536Z,3.22
2019-03-13T18:15:37.147Z,4.00
2019-03-13T18:18:06.791Z,3.10
2019-03-13T18:20:36.446Z,3.67
2019-03-13T18:23:06.449Z,4.50
2019-03-13T18:25:36.197Z,3.83
2019-03-13T18:28:05.842Z,4.28
2019-03-13T18:30:36.558Z,3.60
2019-03-13T18:33:06.203Z,3.95
2019-03-13T18:35:35.845Z,3.70
2019-03-13T18:38:07.160Z,4.00
2019-03-13T18:40:36.807Z,4.33
2019-03-13T18:43:06.565Z,4.22
2019-03-13T18:45:37.768Z,4.03
2019-03-13T18:48:07.897Z,3.77
2019-03-13T18:50:37.535Z,3.35
2019-03-13T18:53:07.293Z,4.65
2019-03-13T18:55:37.782Z,4.65
2019-03-13T18:58:07.423Z,4.28
2019-03-13T19:00:38.737Z,4.25
2019-03-13T19:03:09.702Z,4.85
2019-03-13T19:05:40.060Z,5.45
2019-03-13T19:08:09.824Z,4.97
2019-03-13T19:10:39.467Z,4.33
2019-03-13T19:13:09.113Z,3.72
2019-03-13T19:15:40.275Z,4.08
2019-03-13T19:18:10.558Z,4.80
2019-03-13T19:20:40.431Z,4.42
2019-03-13T19:23:10.072Z,4.72
2019-03-13T19:25:39.718Z,5.58
2019-03-13T19:28:09.422Z,4.78
2019-03-13T19:30:39.126Z,5.25
2019-03-13T19:33:08.882Z,5.33
2019-03-13T19:35:38.524Z,4.60
2019-03-13T19:38:16.449Z,5.20
2019-03-13T19:40:46.085Z,5.12
2019-03-13T19:43:15.737Z,5.53
2019-03-13T19:45:47.535Z,6.45
2019-03-13T19:48:17.182Z,5.70
2019-03-13T19:50:47.058Z,2.70
2019-03-13T19:53:16.689Z,2.10
2019-03-13T19:55:46.336Z,1.80
2019-03-13T19:58:16.224Z,1.95
2019-03-13T20:00:45.864Z,3.02
2019-03-13T20:03:18.373Z,2.95
2019-03-13T20:05:48.273Z,2.92
2019-03-13T20:08:17.900Z,2.75
2019-03-13T20:10:47.542Z,2.90
2019-03-13T20:13:17.196Z,2.05
2019-03-13T20:15:46.946Z,2.40
2019-03-13T20:18:16.465Z,2.70
2019-03-13T20:20:46.348Z,2.47
2019-03-13T20:23:17.922Z,2.55
2019-03-13T20:25:47.923Z,2.55
2019-03-13T20:28:17.557Z,2.20
2019-03-13T20:30:47.200Z,2.33
2019-03-13T20:33:17.080Z,2.75
2019-03-13T20:35:46.720Z,3.08
2019-03-13T20:38:16.481Z,3.12
2019-03-13T20:40:46.123Z,2.92
2019-03-13T20:43:15.891Z,2.58
2019-03-13T20:45:45.529Z,2.40
2019-03-13T20:48:15.168Z,3.42
2019-03-13T20:50:44.807Z,2.40
2019-03-13T20:53:14.448Z,2.50
2019-03-13T20:55:44.580Z,3.47
2019-03-13T20:58:14.212Z,2.60
2019-03-13T21:00:43.850Z,2.15
2019-03-13T21:03:13.737Z,2.20
2019-03-13T21:05:43.621Z,2.17
2019-03-13T21:08:13.261Z,2.02
2019-03-13T21:10:42.909Z,2.02
2019-03-13T21:13:12.548Z,2.40
2019-03-13T21:15:43.697Z,1.87
2019-03-13T21:18:13.744Z,1.82
2019-03-13T21:20:43.509Z,1.20
2019-03-13T21:23:13.151Z,1.55
2019-03-13T21:25:42.789Z,1.85
2019-03-13T21:28:12.549Z,1.35
2019-03-13T21:30:42.203Z,1.42
2019-03-13T21:33:11.831Z,1.10
2019-03-13T21:35:41.485Z,1.17
2019-03-13T21:38:13.053Z,1.35
2019-03-13T21:40:42.555Z,1.80
2019-03-13T21:43:12.199Z,1.40
2019-03-13T21:45:41.891Z,1.22
2019-03-13T21:48:11.485Z,1.30
2019-03-13T21:50:41.128Z,1.47
2019-03-13T21:53:10.885Z,1.35
2019-03-13T21:55:40.529Z,1.67
2019-03-13T21:58:10.169Z,1.80
2019-03-13T22:00:39.817Z,1.80
2019-03-13T22:03:09.451Z,2.02
2019-03-13T22:05:39.220Z,1.85
2019-03-13T22:08:08.859Z,1.67
2019-03-13T22:10:38.499Z,1.80
2019-03-13T22:13:08.262Z,2.10
2019-03-13T22:15:37.899Z,2.30
2019-03-13T22:18:07.668Z,2.22
2019-03-13T22:20:37.307Z,1.77
2019-03-13T22:23:06.944Z,2.98
2019-03-13T22:25:36.588Z,2.40
2019-03-13T22:28:06.231Z,3.20
2019-03-13T22:30:35.877Z,2.15
2019-03-13T22:33:05.509Z,2.65
2019-03-13T22:35:35.158Z,2.77
2019-03-13T22:38:04.801Z,2.30
2019-03-13T22:40:34.556Z,2.90
2019-03-13T22:43:04.205Z,2.87
2019-03-13T22:45:33.856Z,3.05
2019-03-13T22:48:03.479Z,3.37
2019-03-13T22:50:33.241Z,2.85
2019-03-13T22:53:02.904Z,3.70
2019-03-13T22:55:32.768Z,4.08
2019-03-13T22:58:02.406Z,4.00
2019-03-13T23:00:51.494Z,4.28
2019-03-13T23:03:27.132Z,4.40
2019-03-13T23:05:57.015Z,4.50
2019-03-13T23:08:26.650Z,4.90
2019-03-13T23:10:56.298Z,4.92
2019-03-13T23:13:25.937Z,5.15
2019-03-13T23:15:55.578Z,5.87
2019-03-13T23:18:25.350Z,5.00
2019-03-13T23:20:54.978Z,4.55
2019-03-13T23:23:24.627Z,5.72
2019-03-13T23:25:54.325Z,5.25
2019-03-13T23:28:23.906Z,5.45
2019-03-13T23:30:53.545Z,5.60
2019-03-13T23:33:23.308Z,5.85
2019-03-13T23:35:52.953Z,5.08
2019-03-13T23:38:22.721Z,4.87
2019-03-13T23:40:52.354Z,5.70
2019-03-13T23:43:22.119Z,4.85
2019-03-13T23:45:51.755Z,5.45
2019-03-13T23:48:21.396Z,5.47
2019-03-13T23:50:51.042Z,5.42
2019-03-13T23:53:20.681Z,6.67
2019-03-13T23:55:50.446Z,5.90
2019-03-13T23:58:20.084Z,6.60
